Time;durP1;ratioP1;P1;durP2;ratioP2;P2;SDS_P1;SDS_P2;PMS_P1;PMS_P2;Temp;Humidity;BMP_temperature;BMP_pressure;BME280_temperature;BME280_humidity;BME280_pressure;Samples;Min_cycle;Max_cycle;Signal;HPM_P1;HPM_P2
2023/04/25 00:00:15;;;;;;;10.57;3.20;;;;;;;7.92;100.00;100274.34;5060395;28;20028;-80
2023/04/25 00:02:41;;;;;;;8.30;3.10;;;;;;;7.87;100.00;100270.78;5060670;28;20101;-80
2023/04/25 00:05:07;;;;;;;7.32;3.10;;;;;;;7.81;100.00;100261.66;5042851;28;20074;-80
2023/04/25 00:07:33;;;;;;;9.50;3.17;;;;;;;7.76;100.00;100270.78;5040059;28;20033;-80
2023/04/25 00:09:58;;;;;;;7.78;3.10;;;;;;;7.72;100.00;100269.72;5042617;28;20074;-80
2023/04/25 00:12:24;;;;;;;10.65;3.15;;;;;;;7.68;100.00;100273.31;5027222;28;20025;-80
2023/04/25 00:14:49;;;;;;;8.75;3.05;;;;;;;7.64;100.00;100275.81;5040158;28;20033;-80
2023/04/25 00:17:16;;;;;;;8.88;2.72;;;;;;;7.60;100.00;100272.78;5023748;28;20052;-80
2023/04/25 00:19:44;;;;;;;8.25;2.92;;;;;;;7.59;100.00;100273.06;5043392;28;20052;-80
2023/04/25 00:22:10;;;;;;;9.40;3.58;;;;;;;7.51;100.00;100279.97;5056857;28;20040;-80
2023/04/25 00:24:36;;;;;;;9.65;2.97;;;;;;;7.50;100.00;100277.50;5023731;28;20055;-80
2023/04/25 00:27:01;;;;;;;9.77;2.80;;;;;;;7.45;100.00;100269.22;5056708;28;20389;-80
2023/04/25 00:29:26;;;;;;;5.30;2.60;;;;;;;7.41;100.00;100270.88;5042951;28;20024;-80
2023/04/25 00:31:52;;;;;;;6.20;2.63;;;;;;;7.36;100.00;100269.78;5066085;28;20070;-80
2023/04/25 00:34:17;;;;;;;8.85;2.78;;;;;;;7.30;100.00;100276.44;5043001;28;20520;-80
2023/04/25 00:36:43;;;;;;;8.70;3.10;;;;;;;7.28;100.00;100267.59;5013757;28;20032;-80
2023/04/25 00:39:08;;;;;;;11.63;3.05;;;;;;;7.25;100.00;100264.56;5059371;28;20086;-80
2023/04/25 00:41:34;;;;;;;9.38;2.40;;;;;;;7.22;100.00;100270.66;5043132;28;20024;-80
2023/04/25 00:44:00;;;;;;;7.88;2.45;;;;;;;7.18;100.00;100264.81;5039769;28;20029;-80
2023/04/25 00:46:25;;;;;;;9.18;3.15;;;;;;;7.14;100.00;100253.50;5041168;28;20485;-79
2023/04/25 00:48:51;;;;;;;11.25;4.00;;;;;;;7.13;100.00;100260.16;5039466;28;20492;-80
2023/04/25 00:51:19;;;;;;;9.38;3.25;;;;;;;7.11;100.00;100259.59;5052785;28;20031;-79
2023/04/25 00:53:44;;;;;;;7.45;3.00;;;;;;;7.05;100.00;100248.81;5037833;28;20021;-80
2023/04/25 00:56:10;;;;;;;10.63;3.50;;;;;;;7.02;100.00;100254.88;5034643;28;20025;-80
2023/04/25 00:58:35;;;;;;;6.35;2.55;;;;;;;6.98;100.00;100259.31;5024371;28;20040;-79
2023/04/25 01:01:01;;;;;;;9.15;3.35;;;;;;;6.96;100.00;100253.25;5034343;28;20058;-80
2023/04/25 01:03:28;;;;;;;9.57;2.80;;;;;;;6.93;100.00;100251.84;5042686;28;20109;-79
2023/04/25 01:05:54;;;;;;;9.93;2.78;;;;;;;6.91;100.00;100251.31;5075425;28;20035;-80
2023/04/25 01:08:19;;;;;;;8.13;3.28;;;;;;;6.86;100.00;100257.66;5042800;28;20036;-80
2023/04/25 01:10:45;;;;;;;8.65;3.05;;;;;;;6.85;100.00;100256.03;5059182;28;20032;-80
2023/04/25 01:13:10;;;;;;;6.18;2.95;;;;;;;6.84;100.00;100256.28;5061190;28;20040;-79
2023/04/25 01:15:36;;;;;;;9.85;2.97;;;;;;;6.80;100.00;100253.25;5047594;28;20036;-80
2023/04/25 01:18:01;;;;;;;7.30;2.83;;;;;;;6.80;100.00;100256.00;5025940;28;20082;-80
2023/04/25 01:20:28;;;;;;;9.77;3.03;;;;;;;6.79;100.00;100254.34;5075756;28;20031;-79
2023/04/25 01:22:53;;;;;;;7.82;3.10;;;;;;;6.73;100.00;100258.19;5042391;28;20051;-80
2023/04/25 01:25:19;;;;;;;10.07;3.00;;;;;;;6.70;100.00;100267.84;5059011;28;20028;-79
2023/04/25 01:27:44;;;;;;;7.68;3.45;;;;;;;6.71;100.00;100263.16;5039330;28;20029;-80
2023/04/25 01:30:10;;;;;;;6.88;2.63;;;;;;;6.61;100.00;100266.75;5038076;28;20028;-80
2023/04/25 01:32:38;;;;;;;7.38;2.65;;;;;;;6.60;100.00;100258.72;5022184;28;20056;-80
2023/04/25 01:35:11;;;;;;;7.97;2.92;;;;;;;6.57;100.00;100253.75;5051097;28;20090;-79
2023/04/25 01:37:37;;;;;;;;;;;;;;;6.54;100.00;100255.13;5046570;28;20377;-79
2023/04/25 01:40:05;;;;;;;9.13;2.88;;;;;;;6.51;100.00;100255.69;5055918;28;19930;-79
2023/04/25 01:42:31;;;;;;;8.65;3.38;;;;;;;6.47;100.00;100254.59;5059234;28;20568;-79
2023/04/25 01:44:56;;;;;;;5.35;2.83;;;;;;;6.44;100.00;100253.19;5028678;28;20029;-79
2023/04/25 01:47:22;;;;;;;7.95;3.40;;;;;;;6.40;100.00;100243.81;5041965;28;20025;-80
2023/04/25 01:49:47;;;;;;;8.43;3.00;;;;;;;6.37;100.00;100246.28;5025372;28;20028;-79
2023/04/25 01:52:13;;;;;;;5.32;2.80;;;;;;;6.37;100.00;100238.00;5058572;28;20047;-79
2023/04/25 01:54:43;;;;;;;10.07;3.33;;;;;;;6.31;100.00;100234.41;5038271;28;20033;-79
2023/04/25 01:57:09;;;;;;;9.45;3.28;;;;;;;6.32;100.00;100238.00;5022647;28;20028;-79
2023/04/25 01:59:35;;;;;;;8.00;2.72;;;;;;;6.29;100.00;100236.59;5041817;28;20036;-80
2023/04/25 02:02:03;;;;;;;7.85;2.97;;;;;;;6.24;100.00;100222.81;5041751;28;20052;-80
2023/04/25 02:04:29;;;;;;;8.98;3.13;;;;;;;6.25;100.00;100233.56;5058575;28;20637;-79
2023/04/25 02:06:55;;;;;;;9.23;3.30;;;;;;;6.21;100.00;100234.38;5040590;28;20086;-79
2023/04/25 02:09:20;;;;;;;9.02;3.15;;;;;;;6.17;100.00;100242.38;5041654;28;20029;-79
2023/04/25 02:11:45;;;;;;;8.60;2.88;;;;;;;6.15;100.00;100252.00;5038656;28;20059;-79
2023/04/25 02:14:11;;;;;;;7.20;3.03;;;;;;;6.11;100.00;100245.41;5019465;28;20036;-79
2023/04/25 02:16:37;;;;;;;7.78;2.80;;;;;;;6.10;100.00;100249.22;5054971;28;20388;-79
2023/04/25 02:19:02;;;;;;;7.72;3.00;;;;;;;6.10;100.00;100246.47;5041244;28;20040;-79
2023/04/25 02:21:28;;;;;;;9.20;3.20;;;;;;;6.07;100.00;100247.84;5041836;28;20021;-79
2023/04/25 02:23:53;;;;;;;7.82;2.97;;;;;;;6.03;100.00;100246.75;5025053;28;20024;-79
2023/04/25 02:26:19;;;;;;;5.78;2.90;;;;;;;6.04;100.00;100245.63;5038330;28;20025;-79
2023/04/25 02:28:45;;;;;;;8.63;3.20;;;;;;;6.02;100.00;100248.69;5041613;28;20055;-79
2023/04/25 02:31:10;;;;;;;8.60;3.30;;;;;;;5.99;100.00;100249.22;5055042;28;20032;-80
2023/04/25 02:33:35;;;;;;;9.35;3.50;;;;;;;5.97;100.00;100251.41;5052629;28;20033;-79
2023/04/25 02:36:01;;;;;;;5.60;2.83;;;;;;;5.98;100.00;100244.78;5038145;28;20049;-79
2023/04/25 02:38:26;;;;;;;7.72;2.90;;;;;;;5.99;100.00;100238.19;5036384;28;20028;-79
2023/04/25 02:40:52;;;;;;;6.70;3.33;;;;;;;5.97;100.00;100250.59;5058666;28;20051;-79
2023/04/25 02:43:17;;;;;;;7.15;3.22;;;;;;;5.96;100.00;100255.28;5045370;28;20476;-79
2023/04/25 02:45:43;;;;;;;12.18;3.05;;;;;;;5.97;100.00;100243.13;5028907;28;20028;-79
2023/04/25 02:48:08;;;;;;;7.07;3.20;;;;;;;5.93;100.00;100260.44;5045288;28;20028;-79
2023/04/25 02:50:34;;;;;;;8.02;3.03;;;;;;;5.95;100.00;100258.28;5020293;28;20029;-79
2023/04/25 02:52:59;;;;;;;9.55;3.50;;;;;;;5.92;100.00;100254.09;5043125;28;20032;-79
2023/04/25 02:55:25;;;;;;;7.95;3.53;;;;;;;5.94;100.00;100256.63;5025102;28;20033;-79
2023/04/25 02:57:51;;;;;;;7.57;3.78;;;;;;;5.92;100.00;100265.13;5025689;28;20029;-79
2023/04/25 03:00:16;;;;;;;7.20;3.70;;;;;;;5.89;100.00;100270.38;5026602;28;20037;-79
2023/04/25 03:02:42;;;;;;;6.53;3.22;;;;;;;5.87;100.00;100267.03;5041815;28;20269;-79
2023/04/25 03:05:07;;;;;;;8.25;3.25;;;;;;;5.84;100.00;100268.41;5058048;28;20044;-79
2023/04/25 03:07:33;;;;;;;9.18;3.53;;;;;;;5.84;100.00;100262.91;5058289;28;20044;-79
2023/04/25 03:09:58;;;;;;;9.20;3.42;;;;;;;5.87;100.00;100262.34;5054845;28;20048;-79
2023/04/25 03:12:24;;;;;;;7.13;3.28;;;;;;;5.83;100.00;100261.25;5034787;28;20017;-79
2023/04/25 03:14:49;;;;;;;8.55;3.40;;;;;;;5.84;100.00;100262.91;5057947;28;20037;-79
2023/04/25 03:17:15;;;;;;;9.02;3.38;;;;;;;5.85;100.00;100263.72;5050930;28;20385;-79
2023/04/25 03:19:41;;;;;;;7.90;3.35;;;;;;;5.83;100.00;100272.28;5060839;28;20033;-79
2023/04/25 03:22:06;;;;;;;10.15;3.50;;;;;;;5.83;100.00;100273.09;5024819;28;20036;-79
2023/04/25 03:24:32;;;;;;;8.95;3.30;;;;;;;5.83;100.00;100255.72;5041241;28;20025;-79
2023/04/25 03:26:57;;;;;;;7.78;3.38;;;;;;;5.83;100.00;100262.06;5024892;28;20470;-79
2023/04/25 03:29:25;;;;;;;9.38;3.50;;;;;;;5.80;100.00;100270.06;5060997;28;20098;-79
2023/04/25 03:31:51;;;;;;;7.38;3.40;;;;;;;5.82;100.00;100265.06;5045112;28;20397;-79
2023/04/25 03:34:16;;;;;;;6.90;3.33;;;;;;;5.76;100.00;100268.91;5041132;28;20040;-79
2023/04/25 03:36:41;;;;;;;10.57;4.00;;;;;;;5.77;100.00;100274.16;5060845;28;20032;-80
2023/04/25 03:39:07;;;;;;;7.88;3.25;;;;;;;5.79;100.00;100280.25;5061265;28;20362;-79
2023/04/25 03:41:32;;;;;;;9.52;3.83;;;;;;;5.76;100.00;100283.50;5044394;28;20036;-79
2023/04/25 03:43:58;;;;;;;12.27;3.97;;;;;;;5.77;100.00;100279.69;5024429;28;20017;-79
2023/04/25 03:46:23;;;;;;;9.07;3.92;;;;;;;5.78;100.00;100275.81;5059782;28;20040;-79
2023/04/25 03:48:49;;;;;;;7.95;3.15;;;;;;;5.75;100.00;100276.34;5027313;28;20470;-79
2023/04/25 03:51:14;;;;;;;7.07;3.08;;;;;;;5.77;100.00;100270.59;5067339;28;20086;-79
2023/04/25 03:53:40;;;;;;;8.27;3.40;;;;;;;5.78;100.00;100275.00;5025307;28;20029;-79
2023/04/25 03:56:05;;;;;;;8.98;3.70;;;;;;;5.78;100.00;100281.31;5032058;28;20033;-79
2023/04/25 03:58:31;;;;;;;8.90;3.40;;;;;;;5.80;100.00;100289.34;5039670;28;20033;-79
2023/04/25 04:00:56;;;;;;;12.88;3.78;;;;;;;5.80;100.00;100283.84;5034807;28;20044;-80
2023/04/25 04:03:22;;;;;;;9.75;3.55;;;;;;;5.82;100.00;100281.63;5043786;28;20420;-80
2023/04/25 04:05:47;;;;;;;10.10;3.88;;;;;;;5.81;100.00;100291.00;5039909;28;20021;-79
2023/04/25 04:08:13;;;;;;;6.40;3.20;;;;;;;5.83;100.00;100286.06;5027513;28;20044;-80
2023/04/25 04:10:38;;;;;;;7.35;3.20;;;;;;;5.82;100.00;100287.13;5077119;28;20035;-80
2023/04/25 04:13:04;;;;;;;8.80;3.60;;;;;;;5.81;100.00;100285.47;5043451;28;20036;-80
2023/04/25 04:15:29;;;;;;;10.15;3.63;;;;;;;5.85;100.00;100296.78;5043646;28;20051;-80
2023/04/25 04:17:55;;;;;;;10.80;3.65;;;;;;;5.83;100.00;100297.91;5043535;28;20028;-80
2023/04/25 04:20:20;;;;;;;6.85;3.35;;;;;;;5.83;100.00;100294.31;5043585;28;20492;-80
2023/04/25 04:22:46;;;;;;;10.15;3.35;;;;;;;5.81;100.00;100307.53;5023903;28;20037;-79
2023/04/25 04:25:12;;;;;;;9.55;3.50;;;;;;;5.80;100.00;100309.47;5051297;28;20028;-79
2023/04/25 04:27:37;;;;;;;11.55;4.10;;;;;;;5.80;100.00;100316.91;5043384;28;20036;-79
2023/04/25 04:30:04;;;;;;;7.40;3.05;;;;;;;5.79;100.00;100309.72;5030936;28;20041;-80
2023/04/25 04:32:30;;;;;;;7.60;3.15;;;;;;;5.78;100.00;100313.56;5022701;28;20056;-80
2023/04/25 04:34:55;;;;;;;9.48;3.70;;;;;;;5.76;100.00;100315.75;5050980;28;20036;-80
2023/04/25 04:37:21;;;;;;;10.02;3.90;;;;;;;5.75;100.00;100308.59;5026890;28;20028;-79
2023/04/25 04:39:47;;;;;;;8.00;3.22;;;;;;;5.73;100.00;100316.28;5026925;28;20560;-80
2023/04/25 04:42:13;;;;;;;5.85;3.40;;;;;;;5.73;100.00;100319.88;5043103;28;20111;-80
2023/04/25 04:44:38;;;;;;;9.82;4.00;;;;;;;5.74;100.00;100318.78;5031908;28;20389;-80
2023/04/25 04:47:06;;;;;;;9.20;3.70;;;;;;;5.74;100.00;100317.94;5024588;28;20481;-80
2023/04/25 04:49:32;;;;;;;8.93;3.40;;;;;;;5.74;100.00;100317.94;5026970;28;20029;-80
2023/04/25 04:51:59;;;;;;;8.50;3.42;;;;;;;5.70;100.00;100325.09;5046182;28;20519;-79
2023/04/25 04:54:25;;;;;;;11.13;3.72;;;;;;;5.70;100.00;100322.34;5031341;28;20116;-80
2023/04/25 04:56:52;;;;;;;9.82;3.75;;;;;;;5.69;100.00;100326.22;5010806;28;20031;-79
2023/04/25 04:59:17;;;;;;;10.00;3.63;;;;;;;5.68;100.00;100330.84;5032294;28;20501;-80
2023/04/25 05:01:43;;;;;;;9.45;3.70;;;;;;;5.72;100.00;100320.97;5023644;28;20033;-79
2023/04/25 05:04:08;;;;;;;9.85;3.83;;;;;;;5.69;100.00;100331.72;5059406;28;20032;-79
2023/04/25 05:06:34;;;;;;;9.73;3.33;;;;;;;5.70;100.00;100333.38;5058914;28;20044;-79
2023/04/25 05:08:59;;;;;;;10.18;3.60;;;;;;;5.70;100.00;100338.88;5039878;28;20431;-80
2023/04/25 05:11:25;;;;;;;9.30;3.85;;;;;;;5.69;100.00;100343.56;5010671;28;20033;-80
2023/04/25 05:13:54;;;;;;;7.22;3.65;;;;;;;5.75;100.00;100344.41;5042002;28;20040;-80
2023/04/25 05:16:20;;;;;;;9.98;3.70;;;;;;;5.73;100.00;100341.91;5040710;28;20025;-79
2023/04/25 05:18:46;;;;;;;7.80;3.42;;;;;;;5.75;100.00;100345.25;5039175;28;20086;-80
2023/04/25 05:21:11;;;;;;;8.13;3.78;;;;;;;5.76;100.00;100348.81;5022653;28;20029;-79
2023/04/25 05:23:37;;;;;;;6.47;3.65;;;;;;;5.82;100.00;100358.78;5039325;28;20033;-80
2023/04/25 05:26:02;;;;;;;8.98;3.67;;;;;;;5.84;100.00;100359.34;5055593;28;20048;-80
2023/04/25 05:28:27;;;;;;;8.35;3.88;;;;;;;5.85;100.00;100355.53;5022739;28;20025;-79
2023/04/25 05:30:53;;;;;;;6.90;3.63;;;;;;;5.88;100.00;100362.41;5039187;28;20029;-79
2023/04/25 05:33:18;;;;;;;9.60;3.75;;;;;;;5.87;100.00;100372.59;5025875;28;20029;-80
2023/04/25 05:35:44;;;;;;;6.75;3.53;;;;;;;5.92;100.00;100369.06;5020216;28;20434;-79
2023/04/25 05:38:10;;;;;;;9.15;3.67;;;;;;;5.98;100.00;100374.34;5030831;28;20046;-80
2023/04/25 05:40:35;;;;;;;10.48;3.85;;;;;;;5.96;100.00;100376.56;5074491;28;20116;-79
2023/04/25 05:43:01;;;;;;;7.57;3.67;;;;;;;5.99;100.00;100373.28;5058740;28;20025;-79
2023/04/25 05:45:26;;;;;;;8.43;3.30;;;;;;;6.04;100.00;100369.69;5012361;28;20027;-79
2023/04/25 05:47:52;;;;;;;7.45;3.75;;;;;;;6.06;100.00;100375.78;5041992;28;20036;-79
2023/04/25 05:50:17;;;;;;;7.43;3.60;;;;;;;6.12;100.00;100369.19;5058282;28;20036;-79
2023/04/25 05:52:42;;;;;;;9.65;4.22;;;;;;;6.21;100.00;100377.78;5038595;28;20102;-79
2023/04/25 05:55:08;;;;;;;8.88;4.05;;;;;;;6.27;100.00;100365.69;5025131;28;20025;-80
2023/04/25 05:57:34;;;;;;;8.45;3.80;;;;;;;6.33;100.00;100370.13;5041867;28;20503;-79
2023/04/25 05:59:59;;;;;;;7.90;4.22;;;;;;;6.40;100.00;100373.44;5058525;28;20052;-80
2023/04/25 06:02:26;;;;;;;9.77;4.20;;;;;;;6.46;100.00;100368.78;5054819;28;20064;-80
2023/04/25 06:04:51;;;;;;;10.15;4.18;;;;;;;6.52;100.00;100373.25;5021847;28;20036;-79
2023/04/25 06:07:17;;;;;;;8.30;4.13;;;;;;;6.58;100.00;100376.84;5012964;28;20029;-79
2023/04/25 06:09:43;;;;;;;9.48;4.85;;;;;;;6.63;100.00;100382.34;5038723;28;20033;-79
2023/04/25 06:12:09;;;;;;;11.60;4.70;;;;;;;6.67;100.00;100384.31;5038408;28;20108;-80
2023/04/25 06:14:34;;;;;;;6.40;4.32;;;;;;;6.72;100.00;100386.28;5021655;28;20029;-80
2023/04/25 06:17:06;;;;;;;8.40;3.80;;;;;;;6.77;100.00;100379.91;5048624;28;20103;-80
2023/04/25 06:19:34;;;;;;;6.88;3.90;;;;;;;6.79;100.00;100395.09;5058841;28;20037;-80
2023/04/25 06:22:00;;;;;;;10.25;3.97;;;;;;;6.83;100.00;100385.19;5054800;28;20068;-80
2023/04/25 06:24:25;;;;;;;9.38;4.32;;;;;;;6.90;100.00;100385.75;5038228;28;20017;-80
2023/04/25 06:26:51;;;;;;;13.40;3.92;;;;;;;6.92;100.00;100389.06;5049277;28;20039;-80
2023/04/25 06:29:16;;;;;;;8.45;4.15;;;;;;;6.98;100.00;100389.91;5041580;28;20035;-80
2023/04/25 06:31:42;;;;;;;8.93;4.40;;;;;;;7.01;100.00;100381.09;5058360;28;20086;-79
2023/04/25 06:34:07;;;;;;;10.55;4.80;;;;;;;7.06;100.00;100394.06;5041374;28;20373;-80
2023/04/25 06:36:33;;;;;;;11.15;4.43;;;;;;;7.10;100.00;100395.19;5045830;28;20037;-80
2023/04/25 06:38:58;;;;;;;9.80;4.70;;;;;;;7.14;100.00;100401.81;5040340;28;20055;-80
2023/04/25 06:41:24;;;;;;;12.73;5.82;;;;;;;7.20;100.00;100406.25;5038293;28;20040;-80
2023/04/25 06:43:49;;;;;;;12.48;5.10;;;;;;;7.29;100.00;100410.13;5038097;28;20094;-80
2023/04/25 06:46:15;;;;;;;10.90;5.30;;;;;;;7.36;100.00;100416.22;5012861;28;20033;-80
2023/04/25 06:48:40;;;;;;;11.43;5.72;;;;;;;7.43;100.00;100409.59;5036836;28;20036;-80
2023/04/25 06:51:06;;;;;;;10.75;5.55;;;;;;;7.53;100.00;100415.94;5057739;28;20511;-80
2023/04/25 06:53:31;;;;;;;12.07;6.07;;;;;;;7.63;100.00;100419.81;5054309;28;20031;-80
2023/04/25 06:55:57;;;;;;;11.18;4.75;;;;;;;7.72;100.00;100427.28;5048100;28;20029;-80
2023/04/25 06:58:22;;;;;;;13.13;5.75;;;;;;;7.85;100.00;100425.88;5041149;28;20024;-80
2023/04/25 07:00:48;;;;;;;13.65;5.10;;;;;;;7.98;100.00;100421.72;5041206;28;20123;-80
2023/04/25 07:03:13;;;;;;;15.30;7.63;;;;;;;8.13;100.00;100418.09;5024675;28;20032;-80
2023/04/25 07:05:39;;;;;;;15.43;6.93;;;;;;;8.28;100.00;100420.84;5037290;28;20040;-80
2023/04/25 07:08:04;;;;;;;18.48;6.43;;;;;;;8.41;100.00;100419.41;5018179;28;20087;-80
2023/04/25 07:10:30;;;;;;;12.23;6.43;;;;;;;8.53;100.00;100410.81;5048324;28;20036;-80
2023/04/25 07:12:55;;;;;;;11.45;6.50;;;;;;;8.67;100.00;100412.69;5041013;28;20029;-80
2023/04/25 07:15:21;;;;;;;15.07;6.60;;;;;;;8.76;100.00;100410.16;5055811;28;20067;-80
2023/04/25 07:17:46;;;;;;;13.63;6.20;;;;;;;8.84;100.00;100404.03;5041012;28;20028;-80
2023/04/25 07:20:12;;;;;;;14.00;6.07;;;;;;;8.95;100.00;100415.88;5037504;28;20037;-80
2023/04/25 07:22:37;;;;;;;13.30;6.75;;;;;;;9.02;100.00;100418.31;5021232;28;20440;-80
2023/04/25 07:25:04;;;;;;;11.82;6.75;;;;;;;9.13;100.00;100425.47;5048119;28;20047;-80
2023/04/25 07:27:29;;;;;;;11.77;5.82;;;;;;;9.15;100.00;100428.78;5040947;28;20106;-80
2023/04/25 07:29:55;;;;;;;11.00;6.03;;;;;;;9.24;100.00;100426.22;5044495;28;20025;-80
2023/04/25 07:32:20;;;;;;;10.45;5.10;;;;;;;9.33;100.00;100424.50;5061126;28;20028;-77
2023/04/25 07:34:46;;;;;;;10.07;5.50;;;;;;;9.44;100.00;100422.47;5064018;28;20032;-81
2023/04/25 07:37:11;;;;;;;14.20;6.70;;;;;;;9.52;100.00;100432.94;5061110;28;20025;-80
2023/04/25 07:39:37;;;;;;;16.38;7.25;;;;;;;9.67;100.00;100426.44;5036187;28;20071;-81
2023/04/25 07:42:03;;;;;;;13.88;6.68;;;;;;;9.85;100.00;100431.28;5062653;28;20020;-81
2023/04/25 07:44:30;;;;;;;16.80;7.55;;;;;;;9.98;100.00;100432.56;5065111;28;20063;-81
2023/04/25 07:46:56;;;;;;;13.27;6.28;;;;;;;10.13;100.00;100443.50;5067480;28;20111;-81
2023/04/25 07:49:21;;;;;;;13.02;7.20;;;;;;;10.33;100.00;100436.94;5064643;28;20025;-81
2023/04/25 07:51:46;;;;;;;11.00;7.25;;;;;;;10.56;100.00;100443.66;5047768;28;20029;-81
2023/04/25 07:54:14;;;;;;;14.18;6.38;;;;;;;10.80;100.00;100446.38;5022534;28;20409;-80
2023/04/25 07:56:39;;;;;;;15.77;6.40;;;;;;;11.01;100.00;100435.84;5031113;28;20064;-80
2023/04/25 07:59:05;;;;;;;13.95;6.82;;;;;;;11.19;100.00;100446.13;5064910;28;20028;-80
2023/04/25 08:01:30;;;;;;;12.27;6.57;;;;;;;11.32;100.00;100452.91;5047750;28;20037;-80
2023/04/25 08:03:56;;;;;;;11.90;6.15;;;;;;;11.53;100.00;100460.94;5043043;28;20100;-80
2023/04/25 08:06:21;;;;;;;12.02;6.10;;;;;;;11.66;100.00;100454.63;5024516;28;20037;-80
2023/04/25 08:08:47;;;;;;;13.68;6.70;;;;;;;11.76;100.00;100462.81;5031096;28;20048;-80
2023/04/25 08:11:12;;;;;;;9.30;6.30;;;;;;;11.90;100.00;100464.84;5061063;28;20420;-80
2023/04/25 08:13:38;;;;;;;14.80;7.03;;;;;;;11.98;100.00;100464.13;5031095;28;20028;-80
2023/04/25 08:16:03;;;;;;;11.00;6.43;;;;;;;12.02;100.00;100462.41;5030653;28;20020;-80
2023/04/25 08:18:29;;;;;;;10.98;6.25;;;;;;;12.03;100.00;100461.28;5043957;28;20067;-80
2023/04/25 08:20:54;;;;;;;11.50;6.88;;;;;;;11.94;100.00;100475.06;5058085;28;20029;-80
2023/04/25 08:23:20;;;;;;;9.77;6.25;;;;;;;12.00;100.00;100473.00;5043842;28;20025;-80
2023/04/25 08:25:45;;;;;;;10.57;6.20;;;;;;;12.10;100.00;100480.38;5026755;28;20025;-80
2023/04/25 08:28:11;;;;;;;13.32;6.07;;;;;;;12.12;100.00;100481.72;5050395;28;20043;-80
2023/04/25 08:30:36;;;;;;;12.10;6.28;;;;;;;12.08;100.00;100486.25;5060041;28;20477;-80
2023/04/25 08:33:02;;;;;;;10.77;6.15;;;;;;;12.11;100.00;100501.50;5060156;28;20047;-80
2023/04/25 08:35:27;;;;;;;13.38;6.93;;;;;;;12.01;100.00;100503.34;5026551;28;20044;-80
2023/04/25 08:37:53;;;;;;;12.48;7.00;;;;;;;12.00;100.00;100507.25;5030333;28;20033;-80
2023/04/25 08:40:19;;;;;;;12.52;7.18;;;;;;;11.97;100.00;100495.91;5072915;28;20032;-80
2023/04/25 08:42:44;;;;;;;11.23;5.75;;;;;;;12.00;100.00;100506.41;5039780;28;20033;-80
2023/04/25 08:45:10;;;;;;;15.27;6.20;;;;;;;12.07;100.00;100506.88;5056589;28;20024;-80
2023/04/25 08:47:35;;;;;;;11.90;6.05;;;;;;;12.18;100.00;100513.09;5059312;28;20032;-80
2023/04/25 08:50:02;;;;;;;10.95;6.47;;;;;;;12.24;100.00;100511.88;5059374;28;20043;-80
2023/04/25 08:52:30;;;;;;;12.30;5.85;;;;;;;12.33;100.00;100503.63;5056540;28;20040;-80
2023/04/25 08:54:56;;;;;;;12.40;5.90;;;;;;;12.25;100.00;100499.59;5043276;28;20027;-81
2023/04/25 08:57:21;;;;;;;12.88;6.38;;;;;;;12.40;100.00;100498.50;5039757;28;20021;-80
2023/04/25 08:59:47;;;;;;;9.32;5.60;;;;;;;12.43;100.00;100503.47;5054980;28;20384;-80
2023/04/25 09:02:17;;;;;;;9.00;5.80;;;;;;;12.52;100.00;100504.41;5039428;28;20420;-80
2023/04/25 09:04:43;;;;;;;10.07;5.00;;;;;;;12.53;100.00;100509.63;5060162;28;20024;-80
2023/04/25 09:07:08;;;;;;;11.90;5.82;;;;;;;12.62;100.00;100512.56;5059268;28;20432;-81
2023/04/25 09:09:35;;;;;;;11.50;5.20;;;;;;;12.65;100.00;100509.16;5042380;28;20059;-80
2023/04/25 09:12:01;;;;;;;8.93;5.20;;;;;;;12.69;100.00;100509.38;5039377;28;20067;-81
2023/04/25 09:14:27;;;;;;;12.13;6.13;;;;;;;12.56;100.00;100505.41;5022794;28;20028;-81
2023/04/25 09:17:04;;;;;;;9.50;5.75;;;;;;;12.60;100.00;100522.38;5026648;28;20017;-80
2023/04/25 09:19:36;;;;;;;9.45;5.30;;;;;;;12.54;100.00;100516.06;5042397;28;20024;-80
2023/04/25 09:22:02;;;;;;;9.02;4.50;;;;;;;12.65;100.00;100519.50;5039597;28;20416;-80
2023/04/25 09:24:37;;;;;;;10.05;4.63;;;;;;;12.60;100.00;100514.81;5022863;28;20400;-80
2023/04/25 09:27:07;;;;;;;6.55;4.22;;;;;;;12.68;100.00;100519.69;5056380;28;20033;-80
2023/04/25 09:29:33;;;;;;;8.18;4.80;;;;;;;12.78;100.00;100515.03;5059457;28;20029;-81
2023/04/25 09:32:18;;;;;;;11.38;4.90;;;;;;;12.86;100.00;100523.50;5026019;28;20051;-81
2023/04/25 09:34:47;;;;;;;10.77;4.95;;;;;;;12.97;100.00;100522.16;5049017;28;20134;-81
2023/04/25 09:37:16;;;;;;;13.40;5.20;;;;;;;13.07;100.00;100523.13;5020967;28;20036;-81
2023/04/25 09:39:42;;;;;;;12.93;5.03;;;;;;;13.16;100.00;100521.25;5022790;28;20393;-81
2023/04/25 09:42:07;;;;;;;9.65;4.78;;;;;;;13.29;100.00;100520.44;5021098;28;20036;-80
2023/04/25 09:44:33;;;;;;;12.23;4.80;;;;;;;13.37;100.00;100524.44;5030853;28;20029;-80
2023/04/25 09:46:59;;;;;;;7.47;3.83;;;;;;;13.48;100.00;100527.81;5025308;28;20055;-80
2023/04/25 09:49:25;;;;;;;8.50;4.20;;;;;;;13.55;100.00;100522.66;5033310;28;20039;-81
2023/04/25 09:51:57;;;;;;;12.63;5.30;;;;;;;13.56;100.00;100513.97;5023316;28;20037;-81
2023/04/25 09:54:26;;;;;;;13.38;5.03;;;;;;;13.59;100.00;100513.31;5054675;28;20033;-81
2023/04/25 09:56:52;;;;;;;10.45;4.38;;;;;;;13.74;100.00;100511.34;5072675;28;20074;-81
2023/04/25 09:59:22;;;;;;;5.50;3.92;;;;;;;13.81;100.00;100512.53;5038894;28;20122;-79
2023/04/25 10:01:48;;;;;;;9.75;4.25;;;;;;;13.81;100.00;100515.31;5036833;28;20051;-79
2023/04/25 10:04:13;;;;;;;8.02;4.53;;;;;;;13.89;100.00;100515.72;5066764;28;20024;-79
2023/04/25 10:06:39;;;;;;;9.23;4.28;;;;;;;13.88;100.00;100514.91;5057847;28;20037;-79
2023/04/25 10:09:05;;;;;;;8.25;4.55;;;;;;;13.94;100.00;100515.59;5029477;28;20473;-79
2023/04/25 10:11:31;;;;;;;7.53;4.07;;;;;;;14.02;100.00;100524.03;5056958;28;20031;-79
2023/04/25 10:13:56;;;;;;;7.85;4.72;;;;;;;14.01;100.00;100519.63;5040080;28;20029;-79
2023/04/25 10:16:22;;;;;;;6.32;3.70;;;;;;;14.14;100.00;100505.88;5038125;28;20033;-75
2023/04/25 10:18:48;;;;;;;6.70;4.15;;;;;;;14.18;100.00;100512.47;5061261;28;20037;-75
2023/04/25 10:21:13;;;;;;;8.80;4.55;;;;;;;14.22;100.00;100510.72;5056551;28;20035;-79
2023/04/25 10:23:38;;;;;;;6.45;4.30;;;;;;;14.30;100.00;100509.94;5052264;28;20025;-79
2023/04/25 10:26:04;;;;;;;9.00;4.13;;;;;;;14.37;100.00;100521.47;5023220;28;20036;-79
2023/04/25 10:28:29;;;;;;;9.23;4.05;;;;;;;14.40;100.00;100517.22;5041825;28;20082;-79
2023/04/25 10:31:03;;;;;;;8.77;4.28;;;;;;;14.43;100.00;100520.22;5058018;28;20037;-79
2023/04/25 10:33:39;;;;;;;8.32;4.45;;;;;;;14.33;100.00;100519.66;5024942;28;20024;-79
2023/04/25 10:36:17;;;;;;;6.57;3.85;;;;;;;14.41;100.00;100522.50;5051375;28;20082;-80
2023/04/25 10:38:42;;;;;;;8.73;4.05;;;;;;;14.42;100.00;100523.31;5037166;28;20063;-79
2023/04/25 10:41:09;;;;;;;6.88;4.22;;;;;;;14.36;100.00;100517.03;5041469;28;20063;-80
2023/04/25 10:43:41;;;;;;;10.15;4.32;;;;;;;14.27;100.00;100532.94;5028374;28;20036;-79
2023/04/25 10:46:25;;;;;;;10.65;4.90;;;;;;;14.28;100.00;100524.22;5064725;28;20036;-79
2023/04/25 10:48:52;;;;;;;8.25;4.13;;;;;;;14.22;100.00;100522.72;5038212;28;20029;-79
2023/04/25 10:51:20;;;;;;;8.95;4.25;;;;;;;14.17;100.00;100520.03;5005353;28;20035;-79
2023/04/25 10:54:11;;;;;;;7.50;3.90;;;;;;;14.12;100.00;100522.13;5019343;28;20017;-79
2023/04/25 10:56:39;;;;;;;8.90;3.90;;;;;;;14.14;100.00;100536.63;5056575;28;20075;-80
2023/04/25 10:59:06;;;;;;;6.70;3.55;;;;;;;14.12;100.00;100525.75;5032867;28;20029;-79
2023/04/25 11:01:42;;;;;;;9.73;3.75;;;;;;;14.10;100.00;100528.06;5053054;28;20048;-79
2023/04/25 11:04:23;;;;;;;7.57;3.90;;;;;;;14.03;100.00;100522.88;5078097;28;20103;-79
2023/04/25 11:07:06;;;;;;;7.60;3.92;;;;;;;14.06;100.00;100524.22;5037827;28;20544;-79
2023/04/25 11:09:33;;;;;;;6.32;3.50;;;;;;;14.21;100.00;100523.03;5079457;28;20039;-80
2023/04/25 11:11:58;;;;;;;6.07;3.42;;;;;;;14.21;97.31;100517.44;5041810;28;20033;-80
2023/04/25 11:14:24;;;;;;;9.77;4.22;;;;;;;14.24;96.09;100506.47;5028191;28;20024;-80